sensor_id;sensor_type;location;lat;lon;timestamp;P1;durP1;ratioP1;P2;durP2;ratioP2
11111;SDS011;5609;49.466;8.468;2024-03-02T00:00:29;16.00;;;14.27;;
11111;SDS011;5609;49.466;8.468;2024-03-02T00:02:56;18.40;;;14.43;;
11111;SDS011;5609;49.466;8.468;2024-03-02T00:05:24;15.87;;;14.17;;
11111;SDS011;5609;49.466;8.468;2024-03-02T00:07:52;17.87;;;14.93;;
11111;SDS011;5609;49.466;8.468;2024-03-02T00:10:22;19.47;;;15.33;;
11111;SDS011;5609;49.466;8.468;2024-03-02T00:12:54;18.87;;;15.57;;
11111;SDS011;5609;49.466;8.468;2024-03-02T00:15:28;17.03;;;15.07;;
11111;SDS011;5609;49.466;8.468;2024-03-02T00:18:06;16.37;;;14.13;;
11111;SDS011;5609;49.466;8.468;2024-03-02T00:20:35;16.77;;;14.57;;
11111;SDS011;5609;49.466;8.468;2024-03-02T00:23:02;16.87;;;14.43;;
11111;SDS011;5609;49.466;8.468;2024-03-02T00:25:35;17.10;;;14.87;;
11111;SDS011;5609;49.466;8.468;2024-03-02T00:28:04;16.87;;;14.43;;
11111;SDS011;5609;49.466;8.468;2024-03-02T00:30:38;16.80;;;14.63;;
11111;SDS011;5609;49.466;8.468;2024-03-02T00:33:23;15.90;;;14.10;;
11111;SDS011;5609;49.466;8.468;2024-03-02T00:35:55;16.17;;;13.60;;
11111;SDS011;5609;49.466;8.468;2024-03-02T00:38:22;15.53;;;13.37;;
11111;SDS011;5609;49.466;8.468;2024-03-02T00:40:49;16.30;;;13.77;;
11111;SDS011;5609;49.466;8.468;2024-03-02T00:43:25;17.83;;;13.83;;
11111;SDS011;5609;49.466;8.468;2024-03-02T00:46:08;15.83;;;13.90;;
11111;SDS011;5609;49.466;8.468;2024-03-02T00:48:36;14.90;;;12.67;;
11111;SDS011;5609;49.466;8.468;2024-03-02T00:51:04;15.97;;;13.17;;
11111;SDS011;5609;49.466;8.468;2024-03-02T00:53:31;15.13;;;13.27;;
11111;SDS011;5609;49.466;8.468;2024-03-02T00:55:58;14.17;;;12.33;;
11111;SDS011;5609;49.466;8.468;2024-03-02T00:58:26;14.60;;;12.87;;
11111;SDS011;5609;49.466;8.468;2024-03-02T01:00:53;17.30;;;14.27;;
11111;SDS011;5609;49.466;8.468;2024-03-02T01:03:20;16.00;;;13.73;;
11111;SDS011;5609;49.466;8.468;2024-03-02T01:05:47;15.77;;;14.03;;
11111;SDS011;5609;49.466;8.468;2024-03-02T01:08:15;15.20;;;13.50;;
11111;SDS011;5609;49.466;8.468;2024-03-02T01:10:41;15.17;;;13.27;;
11111;SDS011;5609;49.466;8.468;2024-03-02T01:13:08;17.03;;;13.53;;
11111;SDS011;5609;49.466;8.468;2024-03-02T01:15:35;16.87;;;13.50;;
11111;SDS011;5609;49.466;8.468;2024-03-02T01:18:01;15.40;;;13.73;;
11111;SDS011;5609;49.466;8.468;2024-03-02T01:20:28;15.27;;;13.23;;
11111;SDS011;5609;49.466;8.468;2024-03-02T01:22:55;14.43;;;12.87;;
11111;SDS011;5609;49.466;8.468;2024-03-02T01:25:22;14.77;;;13.20;;
11111;SDS011;5609;49.466;8.468;2024-03-02T01:27:50;14.07;;;12.10;;
11111;SDS011;5609;49.466;8.468;2024-03-02T01:30:16;15.13;;;13.53;;
11111;SDS011;5609;49.466;8.468;2024-03-02T01:32:43;15.30;;;12.30;;
11111;SDS011;5609;49.466;8.468;2024-03-02T01:35:10;14.43;;;12.20;;
11111;SDS011;5609;49.466;8.468;2024-03-02T01:37:37;15.33;;;13.00;;
11111;SDS011;5609;49.466;8.468;2024-03-02T01:40:03;14.93;;;13.10;;
11111;SDS011;5609;49.466;8.468;2024-03-02T01:42:35;13.47;;;12.17;;
11111;SDS011;5609;49.466;8.468;2024-03-02T01:45:03;14.13;;;12.60;;
11111;SDS011;5609;49.466;8.468;2024-03-02T01:47:30;13.77;;;12.37;;
11111;SDS011;5609;49.466;8.468;2024-03-02T01:49:57;14.77;;;12.50;;
11111;SDS011;5609;49.466;8.468;2024-03-02T01:52:24;14.07;;;12.03;;
11111;SDS011;5609;49.466;8.468;2024-03-02T01:54:51;13.57;;;12.10;;
11111;SDS011;5609;49.466;8.468;2024-03-02T01:57:17;14.80;;;12.73;;
11111;SDS011;5609;49.466;8.468;2024-03-02T01:59:46;14.87;;;12.07;;
11111;SDS011;5609;49.466;8.468;2024-03-02T02:02:13;13.77;;;12.37;;
11111;SDS011;5609;49.466;8.468;2024-03-02T02:04:40;14.57;;;12.00;;
11111;SDS011;5609;49.466;8.468;2024-03-02T02:07:06;14.07;;;12.57;;
11111;SDS011;5609;49.466;8.468;2024-03-02T02:09:33;13.20;;;11.73;;
11111;SDS011;5609;49.466;8.468;2024-03-02T02:12:00;14.27;;;11.50;;
11111;SDS011;5609;49.466;8.468;2024-03-02T02:14:28;15.03;;;11.97;;
11111;SDS011;5609;49.466;8.468;2024-03-02T02:16:56;13.37;;;11.73;;
11111;SDS011;5609;49.466;8.468;2024-03-02T02:19:23;14.33;;;11.63;;
11111;SDS011;5609;49.466;8.468;2024-03-02T02:21:51;13.73;;;12.20;;
11111;SDS011;5609;49.466;8.468;2024-03-02T02:24:17;13.13;;;11.57;;
11111;SDS011;5609;49.466;8.468;2024-03-02T02:26:44;14.47;;;11.57;;
11111;SDS011;5609;49.466;8.468;2024-03-02T02:29:10;15.77;;;11.70;;
11111;SDS011;5609;49.466;8.468;2024-03-02T02:31:37;13.80;;;11.30;;
11111;SDS011;5609;49.466;8.468;2024-03-02T02:34:04;13.13;;;11.70;;
11111;SDS011;5609;49.466;8.468;2024-03-02T02:36:31;14.27;;;11.97;;
11111;SDS011;5609;49.466;8.468;2024-03-02T02:38:59;14.73;;;12.03;;
11111;SDS011;5609;49.466;8.468;2024-03-02T02:41:29;16.57;;;12.37;;
11111;SDS011;5609;49.466;8.468;2024-03-02T02:43:56;13.87;;;11.80;;
11111;SDS011;5609;49.466;8.468;2024-03-02T02:46:22;14.20;;;11.70;;
11111;SDS011;5609;49.466;8.468;2024-03-02T02:48:49;13.07;;;11.67;;
11111;SDS011;5609;49.466;8.468;2024-03-02T02:51:16;13.80;;;11.70;;
11111;SDS011;5609;49.466;8.468;2024-03-02T02:53:43;13.33;;;11.93;;
11111;SDS011;5609;49.466;8.468;2024-03-02T02:56:11;13.03;;;11.70;;
11111;SDS011;5609;49.466;8.468;2024-03-02T02:58:37;14.03;;;12.03;;
11111;SDS011;5609;49.466;8.468;2024-03-02T03:01:05;13.13;;;11.37;;
11111;SDS011;5609;49.466;8.468;2024-03-02T03:03:32;13.37;;;11.90;;
11111;SDS011;5609;49.466;8.468;2024-03-02T03:05:59;13.93;;;11.53;;
11111;SDS011;5609;49.466;8.468;2024-03-02T03:08:25;15.27;;;11.80;;
11111;SDS011;5609;49.466;8.468;2024-03-02T03:10:52;13.87;;;12.40;;
11111;SDS011;5609;49.466;8.468;2024-03-02T03:13:20;13.63;;;12.20;;
11111;SDS011;5609;49.466;8.468;2024-03-02T03:15:46;14.17;;;12.67;;
11111;SDS011;5609;49.466;8.468;2024-03-02T03:18:13;14.23;;;12.10;;
11111;SDS011;5609;49.466;8.468;2024-03-02T03:20:40;13.23;;;11.93;;
11111;SDS011;5609;49.466;8.468;2024-03-02T03:23:06;14.57;;;13.07;;
11111;SDS011;5609;49.466;8.468;2024-03-02T03:25:33;15.30;;;12.40;;
11111;SDS011;5609;49.466;8.468;2024-03-02T03:28:00;13.30;;;11.90;;
11111;SDS011;5609;49.466;8.468;2024-03-02T03:30:29;13.07;;;11.73;;
11111;SDS011;5609;49.466;8.468;2024-03-02T03:32:56;14.97;;;13.17;;
11111;SDS011;5609;49.466;8.468;2024-03-02T03:35:22;12.77;;;11.47;;
11111;SDS011;5609;49.466;8.468;2024-03-02T03:37:49;13.40;;;12.00;;
11111;SDS011;5609;49.466;8.468;2024-03-02T03:40:15;13.20;;;11.80;;
11111;SDS011;5609;49.466;8.468;2024-03-02T03:42:43;14.33;;;11.90;;
11111;SDS011;5609;49.466;8.468;2024-03-02T03:45:09;13.63;;;11.87;;
11111;SDS011;5609;49.466;8.468;2024-03-02T03:47:37;13.33;;;11.50;;
11111;SDS011;5609;49.466;8.468;2024-03-02T03:50:04;14.13;;;12.40;;
11111;SDS011;5609;49.466;8.468;2024-03-02T03:52:32;12.53;;;11.23;;
11111;SDS011;5609;49.466;8.468;2024-03-02T03:54:58;13.63;;;12.00;;
11111;SDS011;5609;49.466;8.468;2024-03-02T03:57:25;13.60;;;11.50;;
11111;SDS011;5609;49.466;8.468;2024-03-02T03:59:52;13.30;;;11.90;;
11111;SDS011;5609;49.466;8.468;2024-03-02T04:02:19;14.70;;;12.07;;
11111;SDS011;5609;49.466;8.468;2024-03-02T04:04:47;13.33;;;11.93;;
11111;SDS011;5609;49.466;8.468;2024-03-02T04:07:14;13.50;;;11.83;;
11111;SDS011;5609;49.466;8.468;2024-03-02T04:09:40;13.33;;;11.93;;
11111;SDS011;5609;49.466;8.468;2024-03-02T04:12:07;14.03;;;12.53;;
11111;SDS011;5609;49.466;8.468;2024-03-02T04:14:33;13.27;;;11.87;;
11111;SDS011;5609;49.466;8.468;2024-03-02T04:17:00;12.70;;;11.40;;
11111;SDS011;5609;49.466;8.468;2024-03-02T04:19:27;13.40;;;11.23;;
11111;SDS011;5609;49.466;8.468;2024-03-02T04:21:55;13.17;;;11.77;;
11111;SDS011;5609;49.466;8.468;2024-03-02T04:24:21;13.23;;;11.93;;
11111;SDS011;5609;49.466;8.468;2024-03-02T04:26:48;14.23;;;11.70;;
11111;SDS011;5609;49.466;8.468;2024-03-02T04:29:15;14.40;;;12.47;;
11111;SDS011;5609;49.466;8.468;2024-03-02T04:31:41;14.23;;;12.80;;
11111;SDS011;5609;49.466;8.468;2024-03-02T04:34:08;14.87;;;13.30;;
11111;SDS011;5609;49.466;8.468;2024-03-02T04:36:35;13.97;;;12.47;;
11111;SDS011;5609;49.466;8.468;2024-03-02T04:39:03;15.33;;;13.63;;
11111;SDS011;5609;49.466;8.468;2024-03-02T04:41:34;15.30;;;13.13;;
11111;SDS011;5609;49.466;8.468;2024-03-02T04:44:01;15.20;;;13.63;;
11111;SDS011;5609;49.466;8.468;2024-03-02T04:46:27;15.60;;;13.57;;
11111;SDS011;5609;49.466;8.468;2024-03-02T04:48:54;16.10;;;13.70;;
11111;SDS011;5609;49.466;8.468;2024-03-02T04:51:22;16.33;;;14.10;;
11111;SDS011;5609;49.466;8.468;2024-03-02T04:53:48;18.37;;;14.67;;
11111;SDS011;5609;49.466;8.468;2024-03-02T04:56:16;17.93;;;15.00;;
11111;SDS011;5609;49.466;8.468;2024-03-02T04:59:04;15.63;;;13.90;;
11111;SDS011;5609;49.466;8.468;2024-03-02T05:01:31;16.87;;;14.73;;
11111;SDS011;5609;49.466;8.468;2024-03-02T05:03:58;16.83;;;14.40;;
11111;SDS011;5609;49.466;8.468;2024-03-02T05:06:24;17.43;;;14.83;;
11111;SDS011;5609;49.466;8.468;2024-03-02T05:08:51;15.37;;;13.77;;
11111;SDS011;5609;49.466;8.468;2024-03-02T05:11:19;17.93;;;15.53;;
11111;SDS011;5609;49.466;8.468;2024-03-02T05:14:04;16.27;;;14.13;;
11111;SDS011;5609;49.466;8.468;2024-03-02T05:16:32;17.27;;;14.67;;
11111;SDS011;5609;49.466;8.468;2024-03-02T05:19:00;15.90;;;14.20;;
11111;SDS011;5609;49.466;8.468;2024-03-02T05:21:26;17.17;;;13.97;;
11111;SDS011;5609;49.466;8.468;2024-03-02T05:23:53;15.73;;;14.13;;
11111;SDS011;5609;49.466;8.468;2024-03-02T05:26:21;15.43;;;13.73;;
11111;SDS011;5609;49.466;8.468;2024-03-02T05:28:47;18.10;;;15.40;;
11111;SDS011;5609;49.466;8.468;2024-03-02T05:31:15;16.87;;;14.03;;
11111;SDS011;5609;49.466;8.468;2024-03-02T05:33:42;16.17;;;14.33;;
11111;SDS011;5609;49.466;8.468;2024-03-02T05:36:08;17.30;;;14.57;;
11111;SDS011;5609;49.466;8.468;2024-03-02T05:38:35;16.93;;;15.13;;
11111;SDS011;5609;49.466;8.468;2024-03-02T05:41:02;16.13;;;14.43;;
11111;SDS011;5609;49.466;8.468;2024-03-02T05:43:31;15.60;;;14.00;;
11111;SDS011;5609;49.466;8.468;2024-03-02T05:45:57;17.70;;;14.17;;
11111;SDS011;5609;49.466;8.468;2024-03-02T05:48:24;16.57;;;14.77;;
11111;SDS011;5609;49.466;8.468;2024-03-02T05:50:51;15.40;;;13.47;;
11111;SDS011;5609;49.466;8.468;2024-03-02T05:53:17;17.23;;;14.63;;
11111;SDS011;5609;49.466;8.468;2024-03-02T05:55:44;17.13;;;14.60;;
11111;SDS011;5609;49.466;8.468;2024-03-02T05:58:11;17.20;;;15.40;;
11111;SDS011;5609;49.466;8.468;2024-03-02T06:00:52;16.23;;;14.53;;
11111;SDS011;5609;49.466;8.468;2024-03-02T06:03:19;15.37;;;13.77;;
11111;SDS011;5609;49.466;8.468;2024-03-02T06:05:46;16.03;;;14.33;;
11111;SDS011;5609;49.466;8.468;2024-03-02T06:08:14;16.47;;;13.80;;
11111;SDS011;5609;49.466;8.468;2024-03-02T06:10:40;14.93;;;13.17;;
11111;SDS011;5609;49.466;8.468;2024-03-02T06:13:07;16.00;;;14.03;;
11111;SDS011;5609;49.466;8.468;2024-03-02T06:15:34;15.97;;;13.67;;
11111;SDS011;5609;49.466;8.468;2024-03-02T06:18:02;15.80;;;13.60;;
11111;SDS011;5609;49.466;8.468;2024-03-02T06:20:31;14.83;;;13.33;;
11111;SDS011;5609;49.466;8.468;2024-03-02T06:22:58;14.87;;;13.30;;
11111;SDS011;5609;49.466;8.468;2024-03-02T06:25:24;15.87;;;13.73;;
11111;SDS011;5609;49.466;8.468;2024-03-02T06:27:51;15.43;;;13.27;;
11111;SDS011;5609;49.466;8.468;2024-03-02T06:30:18;15.00;;;13.40;;
11111;SDS011;5609;49.466;8.468;2024-03-02T06:32:44;14.33;;;12.83;;
11111;SDS011;5609;49.466;8.468;2024-03-02T06:35:12;15.30;;;13.50;;
11111;SDS011;5609;49.466;8.468;2024-03-02T06:37:39;14.97;;;13.37;;
11111;SDS011;5609;49.466;8.468;2024-03-02T06:40:06;14.67;;;13.07;;
11111;SDS011;5609;49.466;8.468;2024-03-02T06:42:33;14.77;;;13.27;;
11111;SDS011;5609;49.466;8.468;2024-03-02T06:45:00;14.67;;;13.07;;
11111;SDS011;5609;49.466;8.468;2024-03-02T06:47:26;14.27;;;12.73;;
11111;SDS011;5609;49.466;8.468;2024-03-02T06:49:53;15.40;;;12.60;;
11111;SDS011;5609;49.466;8.468;2024-03-02T06:52:21;14.50;;;12.80;;
11111;SDS011;5609;49.466;8.468;2024-03-02T06:54:48;14.63;;;13.10;;
11111;SDS011;5609;49.466;8.468;2024-03-02T06:57:14;14.90;;;12.63;;
11111;SDS011;5609;49.466;8.468;2024-03-02T06:59:42;13.73;;;12.30;;
11111;SDS011;5609;49.466;8.468;2024-03-02T07:02:08;14.27;;;12.40;;
11111;SDS011;5609;49.466;8.468;2024-03-02T07:04:35;13.57;;;12.17;;
11111;SDS011;5609;49.466;8.468;2024-03-02T07:07:01;14.23;;;12.73;;
11111;SDS011;5609;49.466;8.468;2024-03-02T07:09:29;14.03;;;12.63;;
11111;SDS011;5609;49.466;8.468;2024-03-02T07:11:56;14.17;;;12.63;;
11111;SDS011;5609;49.466;8.468;2024-03-02T07:14:23;14.63;;;12.43;;
11111;SDS011;5609;49.466;8.468;2024-03-02T07:17:10;14.03;;;12.57;;
11111;SDS011;5609;49.466;8.468;2024-03-02T07:19:37;14.40;;;12.90;;
11111;SDS011;5609;49.466;8.468;2024-03-02T07:22:05;13.83;;;12.43;;
11111;SDS011;5609;49.466;8.468;2024-03-02T07:24:40;13.70;;;12.10;;
11111;SDS011;5609;49.466;8.468;2024-03-02T07:27:07;13.97;;;12.37;;
11111;SDS011;5609;49.466;8.468;2024-03-02T07:29:34;12.60;;;11.40;;
11111;SDS011;5609;49.466;8.468;2024-03-02T07:32:00;13.63;;;12.23;;
11111;SDS011;5609;49.466;8.468;2024-03-02T07:34:27;13.47;;;12.07;;
11111;SDS011;5609;49.466;8.468;2024-03-02T07:36:54;13.27;;;11.87;;
11111;SDS011;5609;49.466;8.468;2024-03-02T07:39:21;13.57;;;11.67;;
11111;SDS011;5609;49.466;8.468;2024-03-02T07:41:49;12.93;;;11.63;;
11111;SDS011;5609;49.466;8.468;2024-03-02T07:44:16;12.27;;;10.97;;
11111;SDS011;5609;49.466;8.468;2024-03-02T07:46:44;12.43;;;11.10;;
11111;SDS011;5609;49.466;8.468;2024-03-02T07:49:12;12.17;;;10.87;;
11111;SDS011;5609;49.466;8.468;2024-03-02T07:51:39;12.23;;;11.03;;
11111;SDS011;5609;49.466;8.468;2024-03-02T07:54:06;11.70;;;10.50;;
11111;SDS011;5609;49.466;8.468;2024-03-02T07:56:32;11.83;;;10.63;;
11111;SDS011;5609;49.466;8.468;2024-03-02T07:59:00;11.67;;;10.47;;
11111;SDS011;5609;49.466;8.468;2024-03-02T08:01:27;11.47;;;10.27;;
11111;SDS011;5609;49.466;8.468;2024-03-02T08:03:55;10.20;;;9.20;;
11111;SDS011;5609;49.466;8.468;2024-03-02T08:06:23;10.80;;;9.47;;
11111;SDS011;5609;49.466;8.468;2024-03-02T08:08:52;10.10;;;9.10;;
11111;SDS011;5609;49.466;8.468;2024-03-02T08:11:19;9.93;;;9.03;;
11111;SDS011;5609;49.466;8.468;2024-03-02T08:13:46;10.30;;;9.20;;
11111;SDS011;5609;49.466;8.468;2024-03-02T08:16:14;9.30;;;8.40;;
11111;SDS011;5609;49.466;8.468;2024-03-02T08:18:43;9.33;;;7.97;;
11111;SDS011;5609;49.466;8.468;2024-03-02T08:21:10;9.03;;;8.07;;
11111;SDS011;5609;49.466;8.468;2024-03-02T08:23:36;8.97;;;7.57;;
11111;SDS011;5609;49.466;8.468;2024-03-02T08:26:03;8.93;;;7.90;;
11111;SDS011;5609;49.466;8.468;2024-03-02T08:28:30;9.67;;;8.20;;
11111;SDS011;5609;49.466;8.468;2024-03-02T08:30:56;8.67;;;7.83;;
11111;SDS011;5609;49.466;8.468;2024-03-02T08:33:24;8.90;;;8.00;;
11111;SDS011;5609;49.466;8.468;2024-03-02T08:35:51;8.47;;;7.63;;
11111;SDS011;5609;49.466;8.468;2024-03-02T08:38:18;9.27;;;7.80;;
11111;SDS011;5609;49.466;8.468;2024-03-02T08:40:44;8.00;;;7.20;;
11111;SDS011;5609;49.466;8.468;2024-03-02T08:43:11;8.00;;;7.20;;
11111;SDS011;5609;49.466;8.468;2024-03-02T08:45:38;8.03;;;7.13;;
11111;SDS011;5609;49.466;8.468;2024-03-02T08:48:05;9.13;;;7.37;;
11111;SDS011;5609;49.466;8.468;2024-03-02T08:50:34;7.87;;;7.07;;
11111;SDS011;5609;49.466;8.468;2024-03-02T08:53:02;8.03;;;7.23;;
11111;SDS011;5609;49.466;8.468;2024-03-02T08:55:29;7.33;;;6.57;;
11111;SDS011;5609;49.466;8.468;2024-03-02T08:57:56;8.10;;;7.30;;
11111;SDS011;5609;49.466;8.468;2024-03-02T09:00:22;8.10;;;7.30;;
11111;SDS011;5609;49.466;8.468;2024-03-02T09:02:49;7.67;;;6.73;;
11111;SDS011;5609;49.466;8.468;2024-03-02T09:05:16;7.53;;;6.83;;
11111;SDS011;5609;49.466;8.468;2024-03-02T09:07:44;7.03;;;6.33;;
11111;SDS011;5609;49.466;8.468;2024-03-02T09:10:11;7.10;;;6.40;;
11111;SDS011;5609;49.466;8.468;2024-03-02T09:12:37;6.67;;;6.00;;
11111;SDS011;5609;49.466;8.468;2024-03-02T09:15:05;7.90;;;6.40;;
11111;SDS011;5609;49.466;8.468;2024-03-02T09:17:32;6.93;;;5.90;;
11111;SDS011;5609;49.466;8.468;2024-03-02T09:19:59;6.57;;;5.97;;
11111;SDS011;5609;49.466;8.468;2024-03-02T09:22:26;6.20;;;5.60;;
11111;SDS011;5609;49.466;8.468;2024-03-02T09:24:54;5.57;;;5.03;;
11111;SDS011;5609;49.466;8.468;2024-03-02T09:27:20;6.03;;;5.43;;
11111;SDS011;5609;49.466;8.468;2024-03-02T09:29:47;6.67;;;6.07;;
11111;SDS011;5609;49.466;8.468;2024-03-02T09:32:14;6.27;;;5.67;;
11111;SDS011;5609;49.466;8.468;2024-03-02T09:34:40;6.27;;;5.63;;
11111;SDS011;5609;49.466;8.468;2024-03-02T09:37:08;7.33;;;6.60;;
11111;SDS011;5609;49.466;8.468;2024-03-02T09:39:35;7.20;;;6.50;;
11111;SDS011;5609;49.466;8.468;2024-03-02T09:42:03;7.10;;;6.40;;
11111;SDS011;5609;49.466;8.468;2024-03-02T09:44:31;7.47;;;6.67;;
11111;SDS011;5609;49.466;8.468;2024-03-02T09:46:58;7.23;;;6.53;;
11111;SDS011;5609;49.466;8.468;2024-03-02T09:49:25;7.37;;;6.67;;
11111;SDS011;5609;49.466;8.468;2024-03-02T09:51:52;8.47;;;6.97;;
11111;SDS011;5609;49.466;8.468;2024-03-02T09:54:18;6.97;;;6.27;;
11111;SDS011;5609;49.466;8.468;2024-03-02T09:56:46;7.37;;;6.67;;
11111;SDS011;5609;49.466;8.468;2024-03-02T09:59:14;6.73;;;6.10;;
11111;SDS011;5609;49.466;8.468;2024-03-02T10:01:55;6.93;;;6.23;;
11111;SDS011;5609;49.466;8.468;2024-03-02T10:04:23;6.33;;;5.73;;
11111;SDS011;5609;49.466;8.468;2024-03-02T10:06:51;6.13;;;5.60;;
11111;SDS011;5609;49.466;8.468;2024-03-02T10:09:26;6.63;;;5.77;;
11111;SDS011;5609;49.466;8.468;2024-03-02T10:11:53;7.43;;;6.37;;
11111;SDS011;5609;49.466;8.468;2024-03-02T10:14:31;6.60;;;5.90;;
11111;SDS011;5609;49.466;8.468;2024-03-02T10:17:01;8.33;;;5.40;;
11111;SDS011;5609;49.466;8.468;2024-03-02T10:19:28;5.93;;;5.33;;
11111;SDS011;5609;49.466;8.468;2024-03-02T10:21:57;5.33;;;4.83;;
11111;SDS011;5609;49.466;8.468;2024-03-02T10:24:25;7.47;;;4.70;;
11111;SDS011;5609;49.466;8.468;2024-03-02T10:26:52;5.40;;;4.90;;
11111;SDS011;5609;49.466;8.468;2024-03-02T10:29:19;5.47;;;4.97;;
11111;SDS011;5609;49.466;8.468;2024-03-02T10:31:47;5.80;;;4.90;;
11111;SDS011;5609;49.466;8.468;2024-03-02T10:34:14;5.97;;;5.37;;
11111;SDS011;5609;49.466;8.468;2024-03-02T10:36:41;4.87;;;4.47;;
11111;SDS011;5609;49.466;8.468;2024-03-02T10:39:09;5.10;;;4.60;;
11111;SDS011;5609;49.466;8.468;2024-03-02T10:41:37;6.40;;;5.27;;
11111;SDS011;5609;49.466;8.468;2024-03-02T10:44:05;4.73;;;4.30;;
11111;SDS011;5609;49.466;8.468;2024-03-02T10:46:33;3.80;;;3.50;;
11111;SDS011;5609;49.466;8.468;2024-03-02T10:49:02;5.10;;;4.60;;
11111;SDS011;5609;49.466;8.468;2024-03-02T10:51:30;4.23;;;3.83;;
11111;SDS011;5609;49.466;8.468;2024-03-02T10:53:58;4.20;;;3.80;;
11111;SDS011;5609;49.466;8.468;2024-03-02T10:56:27;4.23;;;3.63;;
11111;SDS011;5609;49.466;8.468;2024-03-02T10:58:55;3.73;;;3.30;;
11111;SDS011;5609;49.466;8.468;2024-03-02T11:01:30;3.90;;;3.50;;
11111;SDS011;5609;49.466;8.468;2024-03-02T11:03:58;3.80;;;3.50;;
11111;SDS011;5609;49.466;8.468;2024-03-02T11:06:30;4.23;;;3.30;;
11111;SDS011;5609;49.466;8.468;2024-03-02T11:09:00;3.43;;;3.10;;
11111;SDS011;5609;49.466;8.468;2024-03-02T11:11:33;4.30;;;3.27;;
11111;SDS011;5609;49.466;8.468;2024-03-02T11:14:04;2.70;;;2.50;;
11111;SDS011;5609;49.466;8.468;2024-03-02T11:16:33;2.67;;;2.47;;
11111;SDS011;5609;49.466;8.468;2024-03-02T11:19:02;2.80;;;2.57;;
11111;SDS011;5609;49.466;8.468;2024-03-02T11:21:32;2.97;;;2.67;;
11111;SDS011;5609;49.466;8.468;2024-03-02T11:24:00;3.37;;;3.00;;
11111;SDS011;5609;49.466;8.468;2024-03-02T11:26:47;3.60;;;3.03;;
11111;SDS011;5609;49.466;8.468;2024-03-02T11:29:21;4.37;;;3.20;;
11111;SDS011;5609;49.466;8.468;2024-03-02T11:32:15;3.10;;;2.80;;
11111;SDS011;5609;49.466;8.468;2024-03-02T11:34:43;3.20;;;2.70;;
11111;SDS011;5609;49.466;8.468;2024-03-02T11:37:14;2.60;;;2.40;;
11111;SDS011;5609;49.466;8.468;2024-03-02T11:39:42;2.83;;;2.53;;
11111;SDS011;5609;49.466;8.468;2024-03-02T11:42:10;2.77;;;2.50;;
11111;SDS011;5609;49.466;8.468;2024-03-02T11:44:39;2.87;;;2.37;;
11111;SDS011;5609;49.466;8.468;2024-03-02T11:47:08;2.60;;;2.30;;
11111;SDS011;5609;49.466;8.468;2024-03-02T11:49:39;2.53;;;2.33;;
11111;SDS011;5609;49.466;8.468;2024-03-02T11:52:07;4.30;;;2.30;;
11111;SDS011;5609;49.466;8.468;2024-03-02T11:54:37;2.63;;;1.90;;
11111;SDS011;5609;49.466;8.468;2024-03-02T11:57:06;2.03;;;1.90;;
11111;SDS011;5609;49.466;8.468;2024-03-02T11:59:34;2.23;;;2.00;;
11111;SDS011;5609;49.466;8.468;2024-03-02T12:02:01;3.10;;;2.03;;
11111;SDS011;5609;49.466;8.468;2024-03-02T12:04:28;3.10;;;2.23;;
11111;SDS011;5609;49.466;8.468;2024-03-02T12:06:56;2.20;;;2.00;;
11111;SDS011;5609;49.466;8.468;2024-03-02T12:09:25;2.27;;;2.07;;
11111;SDS011;5609;49.466;8.468;2024-03-02T12:12:02;2.27;;;1.90;;
11111;SDS011;5609;49.466;8.468;2024-03-02T12:14:30;2.43;;;1.90;;
11111;SDS011;5609;49.466;8.468;2024-03-02T12:16:56;3.10;;;1.93;;
11111;SDS011;5609;49.466;8.468;2024-03-02T12:19:24;1.93;;;1.50;;
11111;SDS011;5609;49.466;8.468;2024-03-02T12:21:51;1.80;;;1.70;;
11111;SDS011;5609;49.466;8.468;2024-03-02T12:24:18;1.77;;;1.67;;
11111;SDS011;5609;49.466;8.468;2024-03-02T12:26:44;1.80;;;1.67;;
11111;SDS011;5609;49.466;8.468;2024-03-02T12:29:14;2.00;;;1.80;;
11111;SDS011;5609;49.466;8.468;2024-03-02T12:31:41;2.20;;;2.00;;
11111;SDS011;5609;49.466;8.468;2024-03-02T12:34:10;2.20;;;2.00;;
11111;SDS011;5609;49.466;8.468;2024-03-02T12:36:38;1.60;;;1.50;;
11111;SDS011;5609;49.466;8.468;2024-03-02T12:39:06;1.87;;;1.73;;
11111;SDS011;5609;49.466;8.468;2024-03-02T12:41:35;2.37;;;1.80;;
11111;SDS011;5609;49.466;8.468;2024-03-02T12:44:02;1.63;;;1.53;;
11111;SDS011;5609;49.466;8.468;2024-03-02T12:46:30;1.60;;;1.50;;
11111;SDS011;5609;49.466;8.468;2024-03-02T12:48:57;1.47;;;1.37;;
11111;SDS011;5609;49.466;8.468;2024-03-02T12:51:26;1.53;;;1.37;;
11111;SDS011;5609;49.466;8.468;2024-03-02T12:53:53;1.50;;;1.40;;
11111;SDS011;5609;49.466;8.468;2024-03-02T12:56:20;1.33;;;1.23;;
11111;SDS011;5609;49.466;8.468;2024-03-02T12:58:47;1.47;;;1.17;;
11111;SDS011;5609;49.466;8.468;2024-03-02T13:01:14;1.87;;;1.43;;
11111;SDS011;5609;49.466;8.468;2024-03-02T13:03:45;1.50;;;1.40;;
11111;SDS011;5609;49.466;8.468;2024-03-02T13:06:14;1.20;;;1.10;;
11111;SDS011;5609;49.466;8.468;2024-03-02T13:08:41;1.40;;;1.30;;
11111;SDS011;5609;49.466;8.468;2024-03-02T13:11:08;1.60;;;1.30;;
11111;SDS011;5609;49.466;8.468;2024-03-02T13:13:36;1.80;;;1.50;;
11111;SDS011;5609;49.466;8.468;2024-03-02T13:16:04;1.40;;;1.30;;
11111;SDS011;5609;49.466;8.468;2024-03-02T13:18:31;1.30;;;1.20;;
11111;SDS011;5609;49.466;8.468;2024-03-02T13:21:00;1.67;;;1.37;;
11111;SDS011;5609;49.466;8.468;2024-03-02T13:23:27;1.60;;;1.50;;
11111;SDS011;5609;49.466;8.468;2024-03-02T13:25:55;1.20;;;1.10;;
11111;SDS011;5609;49.466;8.468;2024-03-02T13:28:23;1.50;;;1.40;;
11111;SDS011;5609;49.466;8.468;2024-03-02T13:30:49;1.30;;;1.20;;
11111;SDS011;5609;49.466;8.468;2024-03-02T13:33:16;1.23;;;1.10;;
11111;SDS011;5609;49.466;8.468;2024-03-02T13:35:47;2.47;;;1.30;;
11111;SDS011;5609;49.466;8.468;2024-03-02T13:38:16;1.20;;;1.10;;
11111;SDS011;5609;49.466;8.468;2024-03-02T13:40:43;1.40;;;1.30;;
11111;SDS011;5609;49.466;8.468;2024-03-02T13:43:09;2.40;;;1.73;;
11111;SDS011;5609;49.466;8.468;2024-03-02T13:45:36;2.00;;;1.67;;
11111;SDS011;5609;49.466;8.468;2024-03-02T13:48:03;2.20;;;2.00;;
11111;SDS011;5609;49.466;8.468;2024-03-02T13:50:30;2.40;;;2.20;;
11111;SDS011;5609;49.466;8.468;2024-03-02T13:52:57;2.73;;;1.70;;
11111;SDS011;5609;49.466;8.468;2024-03-02T13:55:26;2.20;;;2.00;;
11111;SDS011;5609;49.466;8.468;2024-03-02T13:57:52;1.90;;;1.80;;
11111;SDS011;5609;49.466;8.468;2024-03-02T14:00:19;1.80;;;1.70;;
11111;SDS011;5609;49.466;8.468;2024-03-02T14:02:46;2.10;;;1.90;;
11111;SDS011;5609;49.466;8.468;2024-03-02T14:05:15;2.67;;;1.80;;
11111;SDS011;5609;49.466;8.468;2024-03-02T14:07:42;1.60;;;1.50;;
11111;SDS011;5609;49.466;8.468;2024-03-02T14:10:09;1.93;;;1.83;;
11111;SDS011;5609;49.466;8.468;2024-03-02T14:12:37;2.13;;;1.93;;
11111;SDS011;5609;49.466;8.468;2024-03-02T14:15:05;2.17;;;1.97;;
11111;SDS011;5609;49.466;8.468;2024-03-02T14:17:32;2.27;;;2.07;;
11111;SDS011;5609;49.466;8.468;2024-03-02T14:19:59;1.80;;;1.70;;
11111;SDS011;5609;49.466;8.468;2024-03-02T14:22:26;3.20;;;1.53;;
11111;SDS011;5609;49.466;8.468;2024-03-02T14:24:53;1.63;;;1.53;;
11111;SDS011;5609;49.466;8.468;2024-03-02T14:27:20;1.90;;;1.80;;
11111;SDS011;5609;49.466;8.468;2024-03-02T14:29:49;1.70;;;1.60;;
11111;SDS011;5609;49.466;8.468;2024-03-02T14:32:16;1.80;;;1.70;;
11111;SDS011;5609;49.466;8.468;2024-03-02T14:34:42;2.33;;;2.10;;
11111;SDS011;5609;49.466;8.468;2024-03-02T14:37:11;2.10;;;1.90;;
11111;SDS011;5609;49.466;8.468;2024-03-02T14:39:38;2.20;;;2.00;;
11111;SDS011;5609;49.466;8.468;2024-03-02T14:42:05;2.53;;;1.90;;
11111;SDS011;5609;49.466;8.468;2024-03-02T14:44:32;2.10;;;2.00;;
11111;SDS011;5609;49.466;8.468;2024-03-02T14:47:01;1.80;;;1.70;;
11111;SDS011;5609;49.466;8.468;2024-03-02T14:49:29;1.93;;;1.83;;